createdAt,value
2018-03-20T00:02:06.310Z,9.68
2018-03-20T00:04:33.768Z,8.75
2018-03-20T00:07:01.238Z,8.80
2018-03-20T00:09:28.680Z,8.82
2018-03-20T00:11:56.181Z,8.80
2018-03-20T00:14:24.408Z,9.23
2018-03-20T00:16:51.886Z,7.55
2018-03-20T00:19:19.373Z,9.10
2018-03-20T00:21:47.605Z,8.75
2018-03-20T00:24:15.060Z,9.15
2018-03-20T00:26:42.537Z,9.48
2018-03-20T00:29:10.009Z,8.98
2018-03-20T00:31:38.246Z,8.70
2018-03-20T00:34:05.713Z,8.52
2018-03-20T00:36:33.180Z,7.70
2018-03-20T00:39:00.737Z,8.05
2018-03-20T00:41:28.297Z,7.03
2018-03-20T00:43:55.748Z,7.72
2018-03-20T00:46:26.945Z,8.77
2018-03-20T00:48:54.509Z,7.18
2018-03-20T00:51:22.016Z,8.55
2018-03-20T00:53:49.477Z,7.90
2018-03-20T00:56:16.946Z,7.45
2018-03-20T00:58:45.169Z,8.05
2018-03-20T01:01:12.637Z,7.47
2018-03-20T01:03:40.140Z,7.40
2018-03-20T01:06:08.372Z,7.87
2018-03-20T01:08:35.843Z,7.60
2018-03-20T01:11:03.312Z,8.32
2018-03-20T01:13:30.916Z,6.78
2018-03-20T01:15:58.413Z,7.15
2018-03-20T01:18:25.927Z,8.18
2018-03-20T01:20:53.396Z,7.15
2018-03-20T01:23:20.854Z,7.80
2018-03-20T01:25:48.349Z,8.23
2018-03-20T01:28:16.585Z,7.00
2018-03-20T01:30:44.040Z,7.72
2018-03-20T01:33:11.504Z,7.03
2018-03-20T01:35:38.993Z,6.97
2018-03-20T01:38:06.461Z,6.75
2018-03-20T01:40:33.996Z,7.12
2018-03-20T01:43:01.452Z,8.10
2018-03-20T01:45:28.908Z,7.32
2018-03-20T01:47:56.368Z,7.55
2018-03-20T01:50:23.834Z,7.90
2018-03-20T01:53:03.160Z,7.60
2018-03-20T01:55:31.431Z,7.22
2018-03-20T01:57:58.892Z,7.37
2018-03-20T02:00:26.349Z,6.68
2018-03-20T02:02:54.620Z,5.85
2018-03-20T02:05:22.288Z,8.05
2018-03-20T02:07:49.958Z,6.60
2018-03-20T02:10:17.521Z,7.95
2018-03-20T02:12:44.997Z,7.03
2018-03-20T02:15:13.248Z,6.68
2018-03-20T02:17:40.708Z,6.87
2018-03-20T02:20:08.215Z,7.35
2018-03-20T02:22:35.686Z,6.80
2018-03-20T02:25:03.162Z,7.55
2018-03-20T02:27:30.748Z,6.45
2018-03-20T02:29:58.216Z,6.18
2018-03-20T02:32:26.470Z,7.80
2018-03-20T02:34:53.941Z,7.85
2018-03-20T02:37:22.161Z,7.03
2018-03-20T02:39:49.657Z,7.10
2018-03-20T02:42:17.118Z,7.10
2018-03-20T02:44:44.677Z,7.53
2018-03-20T02:47:12.141Z,6.95
2018-03-20T02:49:40.373Z,8.77
2018-03-20T02:52:07.865Z,8.90
2018-03-20T02:54:35.340Z,7.95
2018-03-20T02:57:03.589Z,8.63
2018-03-20T02:59:31.043Z,7.37
2018-03-20T03:02:00.044Z,8.23
2018-03-20T03:04:27.604Z,8.40
2018-03-20T03:06:55.148Z,7.57
2018-03-20T03:09:22.616Z,8.70
2018-03-20T03:11:50.164Z,8.38
2018-03-20T03:14:17.625Z,10.30
2018-03-20T03:16:45.112Z,8.90
2018-03-20T03:19:13.360Z,8.95
2018-03-20T03:21:41.601Z,9.27
2018-03-20T03:24:09.089Z,7.62
2018-03-20T03:26:36.558Z,8.63
2018-03-20T03:29:04.836Z,11.00
2018-03-20T03:31:32.341Z,8.88
2018-03-20T03:33:59.808Z,9.40
2018-03-20T03:36:27.284Z,7.72
2018-03-20T03:38:54.738Z,9.00
2018-03-20T03:41:22.205Z,9.43
2018-03-20T03:43:49.761Z,8.95
2018-03-20T03:46:18.744Z,9.02
2018-03-20T03:48:46.226Z,9.93
2018-03-20T03:51:13.771Z,9.13
2018-03-20T03:53:42.008Z,9.27
2018-03-20T03:56:09.512Z,7.93
2018-03-20T03:58:37.080Z,9.07
2018-03-20T04:01:04.637Z,8.68
2018-03-20T04:03:32.113Z,8.55
2018-03-20T04:06:00.391Z,8.57
2018-03-20T04:08:27.924Z,8.75
2018-03-20T04:10:55.405Z,9.10
2018-03-20T04:13:23.707Z,10.00
2018-03-20T04:15:51.199Z,7.65
2018-03-20T04:18:18.769Z,8.30
2018-03-20T04:20:46.247Z,8.90
2018-03-20T04:23:14.476Z,7.62
2018-03-20T04:25:42.809Z,8.05
2018-03-20T04:28:11.057Z,8.68
2018-03-20T04:30:39.278Z,8.02
2018-03-20T04:33:06.785Z,8.63
2018-03-20T04:35:34.249Z,7.75
2018-03-20T04:38:01.814Z,8.38
2018-03-20T04:40:30.044Z,8.30
2018-03-20T04:42:57.529Z,8.52
2018-03-20T04:45:25.001Z,8.07
2018-03-20T04:47:52.473Z,8.60
2018-03-20T04:50:20.698Z,9.07
2018-03-20T04:52:48.168Z,7.60
2018-03-20T04:55:15.645Z,8.00
2018-03-20T04:57:43.254Z,8.98
2018-03-20T05:00:10.728Z,7.55
2018-03-20T05:02:38.199Z,7.37
2018-03-20T05:05:05.697Z,6.43
2018-03-20T05:07:33.920Z,7.57
2018-03-20T05:10:01.396Z,7.90
2018-03-20T05:12:30.368Z,8.98
2018-03-20T05:14:57.839Z,8.73
2018-03-20T05:17:25.296Z,6.43
2018-03-20T05:23:10.046Z,8.20
2018-03-20T05:25:37.508Z,7.28
2018-03-20T05:28:04.976Z,6.78
2018-03-20T05:30:32.478Z,7.70
2018-03-20T05:33:00.708Z,8.10
2018-03-20T05:35:28.187Z,8.15
2018-03-20T05:37:55.671Z,7.30
2018-03-20T05:40:23.897Z,6.82
2018-03-20T05:42:51.388Z,8.75
2018-03-20T05:45:19.609Z,8.05
2018-03-20T05:47:49.553Z,7.15
2018-03-20T05:50:22.755Z,7.68
2018-03-20T05:52:50.208Z,7.20
2018-03-20T05:55:17.677Z,7.90
2018-03-20T05:57:45.345Z,7.10
2018-03-20T06:00:13.581Z,7.80
2018-03-20T06:02:41.058Z,8.18
2018-03-20T06:05:08.516Z,6.80
2018-03-20T06:07:36.008Z,6.82
2018-03-20T06:10:04.237Z,6.43
2018-03-20T06:12:31.701Z,6.45
2018-03-20T06:14:59.160Z,7.10
2018-03-20T06:17:26.616Z,6.78
2018-03-20T06:19:54.084Z,6.90
2018-03-20T06:22:21.654Z,7.20
2018-03-20T06:24:49.124Z,7.57
2018-03-20T06:27:17.410Z,7.97
2018-03-20T06:29:45.601Z,6.87
2018-03-20T06:32:13.096Z,6.22
2018-03-20T06:34:40.588Z,7.12
2018-03-20T06:37:08.824Z,7.07
2018-03-20T06:39:36.405Z,6.78
2018-03-20T06:42:03.976Z,8.77
2018-03-20T06:44:32.205Z,7.37
2018-03-20T06:46:59.671Z,7.25
2018-03-20T06:49:27.200Z,7.37
2018-03-20T06:51:54.658Z,6.62
2018-03-20T06:54:22.180Z,7.15
2018-03-20T06:56:50.413Z,7.37
2018-03-20T06:59:17.940Z,7.57
2018-03-20T07:01:45.409Z,7.50
2018-03-20T07:04:12.877Z,7.20
2018-03-20T07:06:41.348Z,7.95
2018-03-20T07:09:08.840Z,8.05
2018-03-20T07:11:36.400Z,7.07
2018-03-20T07:14:03.881Z,7.95
2018-03-20T07:16:32.108Z,7.85
2018-03-20T07:18:59.585Z,7.32
2018-03-20T07:21:27.825Z,7.90
2018-03-20T07:23:55.288Z,7.90
2018-03-20T07:26:22.744Z,7.50
2018-03-20T07:28:50.202Z,7.78
2018-03-20T07:31:17.669Z,7.95
2018-03-20T07:33:45.143Z,9.00
2018-03-20T07:36:12.614Z,7.20
2018-03-20T07:38:40.150Z,8.55
2018-03-20T07:41:07.713Z,6.97
2018-03-20T07:43:35.173Z,8.30
2018-03-20T07:46:02.739Z,8.10
2018-03-20T07:48:30.221Z,8.45
2018-03-20T07:50:57.666Z,8.40
2018-03-20T07:53:25.884Z,7.97
2018-03-20T07:55:53.388Z,8.23
2018-03-20T07:58:20.852Z,8.82
2018-03-20T08:00:49.258Z,8.30
2018-03-20T08:03:16.772Z,7.68
2018-03-20T08:05:44.250Z,7.80
2018-03-20T08:08:12.075Z,9.20
2018-03-20T08:10:39.527Z,8.90
2018-03-20T08:13:07.072Z,8.45
2018-03-20T08:15:35.244Z,8.50
2018-03-20T08:18:02.724Z,8.18
2018-03-20T08:20:30.185Z,8.82
2018-03-20T08:22:57.647Z,9.00
2018-03-20T08:25:25.116Z,9.32
2018-03-20T08:27:52.669Z,8.82
2018-03-20T08:30:20.148Z,8.23
2018-03-20T08:32:48.386Z,8.90
2018-03-20T08:35:15.877Z,8.52
2018-03-20T08:37:44.128Z,10.05
2018-03-20T08:40:11.696Z,9.30
2018-03-20T08:42:39.230Z,9.23
2018-03-20T08:45:06.762Z,9.50
2018-03-20T08:47:34.221Z,9.55
2018-03-20T08:50:01.720Z,9.25
2018-03-20T08:52:29.268Z,8.68
2018-03-20T08:54:56.736Z,9.35
2018-03-20T08:57:24.201Z,8.50
2018-03-20T08:59:51.692Z,8.57
2018-03-20T09:02:19.152Z,9.45
2018-03-20T09:04:46.658Z,11.82
2018-03-20T09:07:14.120Z,10.40
2018-03-20T09:09:41.577Z,10.23
2018-03-20T09:12:09.193Z,10.45
2018-03-20T09:14:36.640Z,11.80
2018-03-20T09:17:04.141Z,9.43
2018-03-20T09:19:31.606Z,9.80
2018-03-20T09:21:59.062Z,10.18
2018-03-20T09:24:26.574Z,9.38
2018-03-20T09:26:54.793Z,11.23
2018-03-20T09:29:23.781Z,10.48
2018-03-20T09:31:51.253Z,10.77
2018-03-20T09:34:18.759Z,10.98
2018-03-20T09:36:46.256Z,10.15
2018-03-20T09:39:13.721Z,9.90
2018-03-20T09:41:41.272Z,9.52
2018-03-20T09:44:08.846Z,11.45
2018-03-20T09:46:36.391Z,10.95
2018-03-20T09:49:03.932Z,9.73
2018-03-20T09:51:32.104Z,12.35
2018-03-20T09:53:59.571Z,11.93
2018-03-20T09:56:27.096Z,10.73
2018-03-20T09:58:54.558Z,10.05
2018-03-20T10:01:22.056Z,12.18
2018-03-20T10:03:49.624Z,11.45
2018-03-20T10:06:17.088Z,12.43
2018-03-20T10:08:45.345Z,13.62
2018-03-20T10:11:12.800Z,11.12
2018-03-20T10:13:40.289Z,11.65
2018-03-20T10:16:08.531Z,10.80
2018-03-20T10:18:36.099Z,11.32
2018-03-20T10:21:04.375Z,13.55
2018-03-20T10:23:31.864Z,12.37
2018-03-20T10:25:59.453Z,11.77
2018-03-20T10:28:26.924Z,11.30
2018-03-20T10:30:54.395Z,12.52
2018-03-20T10:33:21.857Z,13.07
2018-03-20T10:35:49.322Z,14.20
2018-03-20T10:38:16.794Z,12.57
2018-03-20T10:40:45.142Z,13.45
2018-03-20T10:43:13.378Z,14.73
2018-03-20T10:45:40.846Z,13.65
2018-03-20T10:48:08.341Z,14.60
2018-03-20T10:50:35.813Z,14.55
2018-03-20T10:53:04.049Z,14.77
2018-03-20T10:55:31.543Z,15.18
2018-03-20T10:57:59.808Z,18.60
2018-03-20T11:00:33.096Z,17.15
2018-03-20T11:03:08.289Z,15.82
2018-03-20T11:05:35.798Z,15.23
2018-03-20T11:08:03.348Z,13.32
2018-03-20T11:10:30.822Z,13.10
2018-03-20T11:12:59.076Z,14.15
2018-03-20T11:15:26.545Z,14.55
2018-03-20T11:17:54.107Z,14.20
2018-03-20T11:20:21.582Z,16.20
2018-03-20T11:22:49.834Z,17.83
2018-03-20T11:25:17.365Z,14.13
2018-03-20T11:27:44.833Z,13.05
2018-03-20T11:30:12.308Z,12.98
2018-03-20T11:32:39.765Z,13.65
2018-03-20T11:35:07.294Z,15.13
2018-03-20T11:37:34.776Z,14.25
2018-03-20T11:40:02.329Z,14.23
2018-03-20T11:42:29.790Z,14.25
2018-03-20T11:44:57.344Z,13.15
2018-03-20T11:47:25.014Z,13.77
2018-03-20T11:49:52.599Z,13.07
2018-03-20T11:52:20.180Z,14.43
2018-03-20T11:54:47.740Z,13.50
2018-03-20T11:57:15.237Z,15.13
2018-03-20T11:59:42.704Z,13.85
2018-03-20T12:02:10.237Z,14.23
2018-03-20T12:04:37.710Z,14.40
2018-03-20T12:07:05.178Z,14.85
2018-03-20T12:09:38.183Z,16.35
2018-03-20T12:12:06.421Z,16.67
2018-03-20T12:14:35.398Z,16.00
2018-03-20T12:17:02.865Z,14.07
2018-03-20T12:19:30.333Z,13.20
2018-03-20T12:21:57.874Z,12.07
2018-03-20T12:24:25.396Z,11.90
2018-03-20T12:26:52.933Z,12.35
2018-03-20T12:29:21.157Z,12.20
2018-03-20T12:31:48.708Z,13.45
2018-03-20T12:34:16.175Z,12.13
2018-03-20T12:36:43.652Z,11.77
2018-03-20T12:39:11.173Z,11.63
2018-03-20T12:41:38.646Z,11.38
2018-03-20T12:44:06.225Z,10.20
2018-03-20T12:46:33.866Z,10.27
2018-03-20T12:49:02.083Z,12.27
2018-03-20T12:51:29.520Z,10.65
2018-03-20T12:53:57.088Z,10.38
2018-03-20T12:56:24.561Z,11.38
2018-03-20T12:58:52.802Z,9.80
2018-03-20T13:01:20.268Z,10.40
2018-03-20T13:03:47.756Z,9.77
2018-03-20T13:06:15.975Z,9.93
2018-03-20T13:08:43.461Z,9.55
2018-03-20T13:11:10.918Z,9.30
2018-03-20T13:13:38.384Z,9.48
2018-03-20T13:16:06.628Z,9.07
2018-03-20T13:18:34.096Z,10.02
2018-03-20T13:21:01.557Z,9.20
2018-03-20T13:23:29.077Z,9.88
2018-03-20T13:25:56.531Z,10.82
2018-03-20T13:28:24.004Z,11.23
2018-03-20T13:30:51.460Z,10.00
2018-03-20T13:33:18.929Z,9.52
2018-03-20T13:35:46.458Z,9.48
2018-03-20T13:38:13.928Z,10.88
2018-03-20T13:40:41.388Z,11.07
2018-03-20T13:43:08.855Z,10.07
2018-03-20T13:45:36.324Z,10.63
2018-03-20T13:48:03.821Z,9.38
2018-03-20T13:50:32.047Z,9.77
2018-03-20T13:52:59.521Z,9.07
2018-03-20T13:55:26.956Z,9.27
2018-03-20T13:57:54.438Z,8.95
2018-03-20T14:00:22.090Z,9.43
2018-03-20T14:02:49.547Z,9.63
2018-03-20T14:05:17.009Z,9.60
2018-03-20T14:07:44.556Z,10.00
2018-03-20T14:10:12.023Z,9.43
2018-03-20T14:12:39.480Z,8.80
2018-03-20T14:15:06.944Z,8.30
2018-03-20T14:17:34.402Z,8.15
2018-03-20T14:20:01.862Z,7.35
2018-03-20T14:22:30.122Z,6.70
2018-03-20T14:24:57.689Z,7.90
2018-03-20T14:27:25.144Z,7.80
2018-03-20T14:29:52.604Z,7.70
2018-03-20T14:32:20.060Z,7.20
2018-03-20T14:34:47.613Z,6.82
2018-03-20T14:37:15.175Z,6.90
2018-03-20T14:39:42.653Z,6.90
2018-03-20T14:42:10.871Z,7.45
2018-03-20T14:44:38.364Z,7.95
2018-03-20T14:47:05.814Z,7.30
2018-03-20T14:49:33.272Z,6.68
2018-03-20T14:52:00.745Z,7.37
2018-03-20T14:54:28.972Z,8.23
2018-03-20T14:56:56.429Z,7.68
2018-03-20T14:59:23.915Z,7.10
2018-03-20T15:01:51.384Z,7.32
2018-03-20T15:04:18.934Z,5.85
2018-03-20T15:06:46.484Z,5.62
2018-03-20T15:09:13.939Z,4.70
2018-03-20T15:11:41.506Z,4.40
2018-03-20T15:14:08.961Z,4.47
2018-03-20T15:16:37.927Z,4.20
2018-03-20T15:19:05.375Z,5.12
2018-03-20T15:21:32.924Z,3.97
2018-03-20T15:24:00.429Z,5.12
2018-03-20T15:26:27.889Z,3.90
2018-03-20T15:28:55.350Z,4.15
2018-03-20T15:31:22.821Z,3.22
2018-03-20T15:33:51.049Z,3.70
2018-03-20T15:36:18.513Z,3.05
2018-03-20T15:38:45.978Z,3.20
2018-03-20T15:41:13.432Z,2.17
2018-03-20T15:43:40.884Z,2.40
2018-03-20T15:46:08.342Z,2.33
2018-03-20T15:48:35.796Z,1.60
2018-03-20T15:51:03.288Z,1.95
2018-03-20T15:53:31.515Z,1.65
2018-03-20T15:55:59.016Z,1.90
2018-03-20T15:58:26.474Z,1.80
2018-03-20T16:00:54.707Z,1.40
2018-03-20T16:03:22.162Z,1.52
2018-03-20T16:05:49.644Z,1.10
2018-03-20T16:08:17.106Z,1.30
2018-03-20T16:10:44.656Z,1.77
2018-03-20T16:13:12.225Z,1.17
2018-03-20T16:15:39.680Z,1.45
2018-03-20T16:18:07.141Z,1.75
2018-03-20T16:20:34.600Z,1.12
2018-03-20T16:23:02.069Z,2.67
2018-03-20T16:25:30.293Z,1.00
2018-03-20T16:27:57.774Z,1.00
2018-03-20T16:30:25.231Z,1.15
2018-03-20T16:32:52.693Z,1.10
2018-03-20T16:35:20.142Z,1.67
2018-03-20T16:37:47.702Z,1.17
2018-03-20T16:40:15.156Z,1.35
2018-03-20T16:42:42.612Z,1.35
2018-03-20T16:45:10.136Z,1.10
2018-03-20T16:47:37.595Z,1.30
2018-03-20T16:50:05.054Z,1.30
2018-03-20T16:52:32.511Z,1.08
2018-03-20T16:55:00.009Z,1.20
2018-03-20T16:57:27.472Z,1.50
2018-03-20T16:59:55.081Z,1.35
2018-03-20T17:02:22.549Z,1.67
2018-03-20T17:04:50.002Z,1.35
2018-03-20T17:07:17.487Z,1.58
2018-03-20T17:09:46.454Z,2.05
2018-03-20T17:12:13.937Z,1.70
2018-03-20T17:14:41.395Z,2.25
2018-03-20T17:17:08.880Z,1.70
2018-03-20T17:19:37.094Z,3.03
2018-03-20T17:22:04.557Z,1.52
2018-03-20T17:24:32.005Z,1.42
2018-03-20T17:26:59.595Z,1.80
2018-03-20T17:29:27.053Z,2.03
2018-03-20T17:31:54.505Z,2.35
2018-03-20T17:34:21.977Z,1.55
2018-03-20T17:36:50.206Z,2.62
2018-03-20T17:39:17.712Z,1.70
2018-03-20T17:41:45.167Z,1.55
2018-03-20T17:44:12.650Z,1.50
2018-03-20T17:46:40.997Z,1.40
2018-03-20T17:49:08.469Z,1.55
2018-03-20T17:51:36.684Z,1.70
2018-03-20T17:54:04.157Z,1.60
2018-03-20T17:56:31.724Z,1.10
2018-03-20T17:58:59.191Z,1.40
2018-03-20T18:01:27.434Z,1.40
2018-03-20T18:03:55.196Z,1.80
2018-03-20T18:06:22.652Z,1.50
2018-03-20T18:08:50.195Z,1.17
2018-03-20T18:11:18.388Z,1.45
2018-03-20T18:13:45.853Z,1.33
2018-03-20T18:16:13.333Z,1.60
2018-03-20T18:18:40.793Z,1.55
2018-03-20T18:21:09.088Z,1.45
2018-03-20T18:23:37.308Z,1.87
2018-03-20T18:26:04.860Z,1.52
2018-03-20T18:28:32.331Z,1.73
2018-03-20T18:30:59.786Z,2.37
2018-03-20T18:33:27.265Z,1.58
2018-03-20T18:35:54.730Z,1.87
2018-03-20T18:38:22.187Z,2.60
2018-03-20T18:40:49.659Z,1.90
2018-03-20T18:43:17.208Z,1.60
2018-03-20T18:45:44.769Z,1.35
2018-03-20T18:48:12.229Z,1.60
2018-03-20T18:50:39.778Z,1.45
2018-03-20T18:53:08.006Z,1.70
2018-03-20T18:55:35.501Z,2.08
2018-03-20T18:58:02.952Z,1.58
2018-03-20T19:00:30.412Z,2.00
2018-03-20T19:02:57.861Z,1.95
2018-03-20T19:05:25.338Z,1.58
2018-03-20T19:07:52.910Z,2.58
2018-03-20T19:10:20.450Z,1.62
2018-03-20T19:12:47.900Z,1.50
2018-03-20T19:15:15.368Z,1.95
2018-03-20T19:17:42.922Z,1.65
2018-03-20T19:20:10.423Z,1.80
2018-03-20T19:22:37.820Z,1.73
2018-03-20T19:25:05.277Z,2.45
2018-03-20T19:27:32.728Z,1.45
2018-03-20T19:30:00.180Z,1.95
2018-03-20T19:32:27.668Z,2.22
2018-03-20T19:34:55.119Z,2.60
2018-03-20T19:37:22.572Z,2.53
2018-03-20T19:39:50.048Z,2.00
2018-03-20T19:42:17.530Z,2.30
2018-03-20T19:44:44.991Z,1.90
2018-03-20T19:47:12.453Z,1.90
2018-03-20T19:49:39.954Z,2.15
2018-03-20T19:52:07.417Z,2.53
2018-03-20T19:54:34.976Z,1.67
2018-03-20T19:57:02.540Z,1.80
2018-03-20T19:59:30.057Z,2.53
2018-03-20T20:01:57.508Z,2.22
2018-03-20T20:04:24.974Z,2.08
2018-03-20T20:06:52.420Z,2.45
2018-03-20T20:09:19.884Z,2.30
2018-03-20T20:11:47.332Z,2.00
2018-03-20T20:14:14.802Z,1.85
2018-03-20T20:16:42.280Z,1.40
2018-03-20T20:19:09.738Z,1.62
2018-03-20T20:21:37.192Z,2.05
2018-03-20T20:24:04.661Z,2.00
2018-03-20T20:26:32.121Z,2.40
2018-03-20T20:28:59.677Z,2.12
2018-03-20T20:31:27.134Z,2.45
2018-03-20T20:33:54.637Z,2.45
2018-03-20T20:36:22.099Z,1.90
2018-03-20T20:38:49.561Z,2.50
2018-03-20T20:41:17.070Z,1.80
2018-03-20T20:43:44.531Z,1.73
2018-03-20T20:46:11.977Z,1.80
2018-03-20T20:48:39.441Z,2.35
2018-03-20T20:51:06.988Z,2.35
2018-03-20T20:53:34.450Z,1.52
2018-03-20T20:56:01.911Z,2.33
2018-03-20T20:58:29.370Z,1.80
2018-03-20T21:00:56.916Z,2.28
2018-03-20T21:03:24.376Z,1.95
2018-03-20T21:05:51.827Z,2.40
2018-03-20T21:08:19.294Z,2.05
2018-03-20T21:10:46.758Z,2.25
2018-03-20T21:13:14.298Z,2.08
2018-03-20T21:15:41.852Z,2.95
2018-03-20T21:18:09.328Z,2.40
2018-03-20T21:20:36.873Z,1.83
2018-03-20T21:23:04.324Z,2.28
2018-03-20T21:25:31.779Z,2.40
2018-03-20T21:27:59.364Z,2.50
2018-03-20T21:30:26.815Z,2.83
2018-03-20T21:32:54.342Z,2.60
2018-03-20T21:35:21.804Z,3.05
2018-03-20T21:37:49.271Z,2.30
2018-03-20T21:40:16.725Z,2.08
2018-03-20T21:42:44.197Z,2.65
2018-03-20T21:45:11.743Z,2.00
2018-03-20T21:47:39.306Z,1.67
2018-03-20T21:50:06.865Z,1.60
2018-03-20T21:52:34.325Z,2.12
2018-03-20T21:55:01.788Z,2.37
2018-03-20T21:57:29.236Z,1.62
2018-03-20T21:59:56.811Z,2.10
2018-03-20T22:02:24.256Z,2.12
2018-03-20T22:04:51.710Z,2.15
2018-03-20T22:07:19.259Z,2.10
2018-03-20T22:09:46.820Z,2.42
2018-03-20T22:12:14.300Z,2.15
2018-03-20T22:14:42.515Z,2.70
2018-03-20T22:17:09.987Z,2.35
2018-03-20T22:19:37.433Z,2.85
2018-03-20T22:22:04.927Z,2.00
2018-03-20T22:24:32.380Z,2.22
2018-03-20T22:26:59.852Z,2.30
2018-03-20T22:29:27.304Z,2.20
2018-03-20T22:31:54.769Z,2.10
2018-03-20T22:34:23.025Z,2.90
2018-03-20T22:36:50.484Z,2.35
2018-03-20T22:39:17.947Z,2.33
2018-03-20T22:41:45.476Z,2.50
2018-03-20T22:44:12.925Z,2.65
2018-03-20T22:46:40.377Z,2.50
2018-03-20T22:49:07.835Z,2.70
2018-03-20T22:51:35.332Z,2.30
2018-03-20T22:54:02.786Z,2.80
2018-03-20T22:56:30.243Z,1.92
2018-03-20T22:58:57.693Z,3.08
2018-03-20T23:01:25.167Z,2.78
2018-03-20T23:03:53.435Z,2.50
2018-03-20T23:06:20.986Z,2.35
2018-03-20T23:08:48.658Z,2.47
2018-03-20T23:11:16.162Z,2.40
2018-03-20T23:13:43.620Z,2.22
2018-03-20T23:16:11.109Z,2.75
2018-03-20T23:18:38.578Z,2.45
2018-03-20T23:21:06.133Z,2.33
2018-03-20T23:23:33.602Z,2.72
2018-03-20T23:26:01.060Z,2.30
2018-03-20T23:28:29.288Z,3.15
2018-03-20T23:30:56.784Z,3.03
2018-03-20T23:33:24.246Z,2.58
2018-03-20T23:35:51.854Z,2.67
2018-03-20T23:38:19.325Z,2.85
2018-03-20T23:40:46.783Z,2.50
2018-03-20T23:43:14.244Z,2.83
2018-03-20T23:45:41.696Z,2.62
2018-03-20T23:48:09.152Z,2.97
2018-03-20T23:50:36.633Z,3.87
2018-03-20T23:53:04.105Z,3.20
2018-03-20T23:55:31.601Z,4.55
2018-03-20T23:57:59.105Z,3.22
